Time;durP1;ratioP1;P1;durP2;ratioP2;P2;SDS_P1;SDS_P2;PMS_P1;PMS_P2;Temp;Humidity;BMP_temperature;BMP_pressure;BME280_temperature;BME280_humidity;BME280_pressure;Samples;Min_cycle;Max_cycle;Signal;HPM_P1;HPM_P2
2022/06/23 00:00:31;;;;;;;8.50;3.53;;;;;;;;;;7380115;19;20342;-76
2022/06/23 00:02:58;;;;;;;8.85;3.53;;;;;;;;;;7385447;19;20010;-76
2022/06/23 00:05:27;;;;;;;5.30;3.08;;;;;;;;;;7384932;19;20015;-76
2022/06/23 00:07:58;;;;;;;5.78;3.15;;;;;;;;;;7385621;19;20010;-76
2022/06/23 00:10:35;;;;;;;12.98;3.15;;;;;;;;;;7389390;19;20019;-76
2022/06/23 00:13:03;;;;;;;6.20;3.00;;;;;;;;;;7384745;19;20025;-76
2022/06/23 00:15:37;;;;;;;10.48;3.38;;;;;;;;;;7379562;19;20013;-76
2022/06/23 00:18:06;;;;;;;8.18;3.75;;;;;;;;;;7381854;19;20479;-76
2022/06/23 00:20:43;;;;;;;4.97;3.05;;;;;;;;;;7387705;19;20010;-76
2022/06/23 00:23:18;;;;;;;7.38;3.63;;;;;;;;;;7386426;19;20028;-76
2022/06/23 00:25:56;;;;;;;7.17;3.90;;;;;;;;;;7386534;19;20114;-76
2022/06/23 00:28:31;;;;;;;9.07;4.03;;;;;;;;;;7384891;19;20608;-76
2022/06/23 00:31:02;;;;;;;8.93;4.05;;;;;;;;;;7385982;19;20109;-76
2022/06/23 00:33:39;;;;;;;7.82;3.38;;;;;;;;;;7383622;19;20492;-76
2022/06/23 00:36:17;;;;;;;10.23;3.45;;;;;;;;;;7387992;19;20460;-76
2022/06/23 00:38:43;;;;;;;5.90;1.98;;;;;;;;;;7384213;19;20025;-76
2022/06/23 00:41:21;;;;;;;4.50;2.50;;;;;;;;;;7385824;19;19998;-76
2022/06/23 00:43:49;;;;;;;7.75;3.10;;;;;;;;;;7385069;19;20015;-76
2022/06/23 00:46:28;;;;;;;7.88;2.47;;;;;;;;;;7385389;19;20003;-76
2022/06/23 00:49:00;;;;;;;10.25;2.88;;;;;;;;;;7385293;19;20010;-76
2022/06/23 00:51:35;;;;;;;5.03;2.47;;;;;;;;;;7387029;19;20003;-76
2022/06/23 00:54:23;;;;;;;5.75;2.70;;;;;;;;;;7382236;19;20485;-76
2022/06/23 00:56:57;;;;;;;6.75;3.40;;;;;;;;;;7385720;19;20018;-76
2022/06/23 00:59:29;;;;;;;9.10;3.50;;;;;;;;;;7383214;19;20003;-76
2022/06/23 01:02:04;;;;;;;9.45;3.13;;;;;;;;;;7388693;19;20454;-76
2022/06/23 01:04:51;;;;;;;9.20;3.30;;;;;;;;;;7390694;19;20034;-76
2022/06/23 01:07:25;;;;;;;9.30;3.65;;;;;;;;;;7393648;19;20367;-76
2022/06/23 01:10:04;;;;;;;16.00;3.72;;;;;;;;;;7391568;19;20006;-76
2022/06/23 01:12:52;;;;;;;6.70;3.05;;;;;;;;;;7392690;19;20011;-76
2022/06/23 01:15:41;;;;;;;5.50;2.22;;;;;;;;;;7386666;19;19998;-76
2022/06/23 01:18:14;;;;;;;8.15;3.05;;;;;;;;;;7392406;19;20521;-76
2022/06/23 01:20:48;;;;;;;5.10;2.63;;;;;;;;;;7393155;19;20009;-76
2022/06/23 01:23:38;;;;;;;5.53;2.60;;;;;;;;;;7389969;19;20006;-76
2022/06/23 01:26:18;;;;;;;5.53;2.40;;;;;;;;;;7394082;19;20006;-76
2022/06/23 01:28:44;;;;;;;5.60;2.35;;;;;;;;;;7393688;19;20011;-76
2022/06/23 01:31:12;;;;;;;7.60;2.83;;;;;;;;;;7390293;19;20568;-76
2022/06/23 01:33:40;;;;;;;5.18;3.00;;;;;;;;;;7388923;19;20006;-76
2022/06/23 01:36:18;;;;;;;4.45;2.65;;;;;;;;;;7393163;19;20031;-76
2022/06/23 01:39:01;;;;;;;4.65;2.42;;;;;;;;;;7388842;19;20006;-76
2022/06/23 01:41:42;;;;;;;9.02;3.95;;;;;;;;;;7388501;19;20018;-76
2022/06/23 01:44:13;;;;;;;9.20;3.20;;;;;;;;;;7389494;19;20015;-76
2022/06/23 01:46:41;;;;;;;9.20;3.25;;;;;;;;;;7390195;19;20003;-76
2022/06/23 01:49:33;;;;;;;5.15;3.40;;;;;;;;;;7389129;19;20086;-76
2022/06/23 01:52:11;;;;;;;8.90;3.05;;;;;;;;;;7391735;19;20007;-76
2022/06/23 01:54:38;;;;;;;6.90;2.97;;;;;;;;;;7390883;19;20095;-76
2022/06/23 01:57:08;;;;;;;8.77;3.17;;;;;;;;;;7392629;19;20006;-78
2022/06/23 01:59:58;;;;;;;8.60;3.13;;;;;;;;;;7385012;19;20018;-76
2022/06/23 02:02:29;;;;;;;9.15;3.30;;;;;;;;;;7391024;19;20025;-76
2022/06/23 02:04:59;;;;;;;9.13;3.65;;;;;;;;;;7388239;19;20006;-76
2022/06/23 02:07:47;;;;;;;3.92;2.85;;;;;;;;;;7391788;19;20014;-76
2022/06/23 02:10:31;;;;;;;9.15;4.00;;;;;;;;;;7391388;19;20060;-76
2022/06/23 02:12:56;;;;;;;8.02;3.38;;;;;;;;;;7390160;19;20327;-76
2022/06/23 02:15:24;;;;;;;3.92;3.05;;;;;;;;;;7386834;19;20014;-76
2022/06/23 02:18:07;;;;;;;7.57;3.65;;;;;;;;;;7390159;19;20007;-76
2022/06/23 02:21:04;;;;;;;7.57;3.55;;;;;;;;;;7385911;19;20014;-76
2022/06/23 02:23:43;;;;;;;12.60;3.88;;;;;;;;;;7388350;19;20015;-76
2022/06/23 02:26:26;;;;;;;8.35;3.00;;;;;;;;;;7388286;19;20007;-76
2022/06/23 02:29:25;;;;;;;9.18;3.92;;;;;;;;;;7390839;19;20025;-76
2022/06/23 02:32:06;;;;;;;6.95;3.58;;;;;;;;;;7390427;19;20003;-76
2022/06/23 02:34:41;;;;;;;6.05;4.28;;;;;;;;;;7387768;19;20449;-76
2022/06/23 02:37:24;;;;;;;;;;;;;;;;;;7392008;19;20009;-76
2022/06/23 02:39:54;;;;;;;7.40;3.58;;;;;;;;;;7386151;19;19926;-76
2022/06/23 02:42:30;;;;;;;11.13;4.18;;;;;;;;;;7389046;19;20044;-76
2022/06/23 02:45:02;;;;;;;7.30;3.22;;;;;;;;;;7389232;19;20134;-76
2022/06/23 02:47:53;;;;;;;6.13;4.40;;;;;;;;;;7390340;19;20010;-76
2022/06/23 02:50:45;;;;;;;10.90;4.68;;;;;;;;;;7390801;19;20546;-76
2022/06/23 02:53:16;;;;;;;7.05;3.83;;;;;;;;;;7391288;19;20010;-76
2022/06/23 02:55:50;;;;;;;4.80;3.88;;;;;;;;;;7387179;19;20026;-76
2022/06/23 02:58:43;;;;;;;7.35;3.70;;;;;;;;;;7387767;19;20003;-76
2022/06/23 03:01:33;;;;;;;12.40;3.72;;;;;;;;;;7389320;19;20130;-76
2022/06/23 03:04:04;;;;;;;10.23;4.25;;;;;;;;;;7387246;19;20010;-76
2022/06/23 03:07:05;;;;;;;12.13;4.22;;;;;;;;;;7389410;19;20007;-76
2022/06/23 03:09:37;;;;;;;8.90;4.15;;;;;;;;;;7384313;19;20670;-76
2022/06/23 03:12:16;;;;;;;14.43;4.50;;;;;;;;;;7385715;19;20014;-76
2022/06/23 03:14:42;;;;;;;5.45;3.78;;;;;;;;;;7387324;19;20022;-76
2022/06/23 03:17:22;;;;;;;9.63;4.95;;;;;;;;;;7387426;19;20477;-76
2022/06/23 03:20:00;;;;;;;8.20;4.93;;;;;;;;;;7387810;19;20014;-76
2022/06/23 03:22:30;;;;;;;9.88;4.28;;;;;;;;;;7387918;19;20482;-76
2022/06/23 03:25:23;;;;;;;6.03;3.72;;;;;;;;;;7388612;19;20014;-76
2022/06/23 03:27:51;;;;;;;8.50;4.88;;;;;;;;;;7384204;19;20038;-76
2022/06/23 03:30:23;;;;;;;8.05;4.22;;;;;;;;;;7387639;19;20014;-76
2022/06/23 03:32:55;;;;;;;8.13;4.15;;;;;;;;;;7388603;19;20015;-76
2022/06/23 03:35:25;;;;;;;6.20;4.68;;;;;;;;;;7388686;19;20070;-76
2022/06/23 03:37:56;;;;;;;9.85;4.45;;;;;;;;;;7390334;19;20018;-76
2022/06/23 03:43:36;;;;;;;10.10;4.35;;;;;;;;;;7386290;19;20092;-76
2022/06/23 03:46:13;;;;;;;8.45;4.18;;;;;;;;;;7386315;19;20031;-76
2022/06/23 03:48:43;;;;;;;4.53;3.83;;;;;;;;;;7388396;19;20006;-76
2022/06/23 03:51:18;;;;;;;4.68;3.78;;;;;;;;;;7385556;19;20010;-76
2022/06/23 03:53:47;;;;;;;;;;;;;;;;;;7387056;19;20018;-76
2022/06/23 03:56:19;;;;;;;8.48;4.05;;;;;;;;;;7385872;19;19935;-76
2022/06/23 03:58:54;;;;;;;9.10;4.13;;;;;;;;;;7387786;19;20018;-76
2022/06/23 04:01:38;;;;;;;9.35;3.95;;;;;;;;;;7384269;19;20015;-76
2022/06/23 04:04:13;;;;;;;9.00;4.00;;;;;;;;;;7383473;19;20003;-76
2022/06/23 04:06:40;;;;;;;;;;;;;;;;;;7387578;19;20006;-76
2022/06/23 04:09:17;;;;;;;10.93;4.30;;;;;;;;;;7387677;19;20006;-76
2022/06/23 04:12:06;;;;;;;8.30;4.05;;;;;;;;;;7383144;19;20082;-76
2022/06/23 04:14:47;;;;;;;6.72;3.97;;;;;;;;;;7385226;19;20009;-76
2022/06/23 04:17:21;;;;;;;7.60;3.90;;;;;;;;;;7385056;19;20010;-76
2022/06/23 04:20:09;;;;;;;4.70;2.75;;;;;;;;;;7381401;19;20018;-76
2022/06/23 04:22:48;;;;;;;6.15;4.07;;;;;;;;;;7386970;19;20003;-75
2022/06/23 04:25:20;;;;;;;7.03;3.28;;;;;;;;;;7388697;19;20014;-76
2022/06/23 04:27:50;;;;;;;4.85;3.70;;;;;;;;;;7385095;19;20034;-76
2022/06/23 04:30:26;;;;;;;6.55;3.17;;;;;;;;;;7387809;19;20457;-76
2022/06/23 04:32:53;;;;;;;7.90;3.95;;;;;;;;;;7383480;19;20370;-76
2022/06/23 04:35:37;;;;;;;8.40;4.35;;;;;;;;;;7380574;19;19998;-75
2022/06/23 04:38:11;;;;;;;6.10;3.28;;;;;;;;;;7396006;19;20111;-76
2022/06/23 04:40:42;;;;;;;8.13;3.33;;;;;;;;;;7392743;19;20017;-75
2022/06/23 04:43:32;;;;;;;6.93;3.08;;;;;;;;;;7392415;19;20543;-76
2022/06/23 04:46:15;;;;;;;7.55;3.05;;;;;;;;;;7391975;19;20014;-76
2022/06/23 04:48:49;;;;;;;7.28;3.20;;;;;;;;;;7394122;19;20010;-76
2022/06/23 04:51:18;;;;;;;9.43;3.30;;;;;;;;;;7393995;19;20006;-77
2022/06/23 04:53:52;;;;;;;8.52;3.22;;;;;;;;;;7391876;19;20014;-76
2022/06/23 04:56:24;;;;;;;8.45;2.10;;;;;;;;;;7395161;19;20010;-76
2022/06/23 04:59:02;;;;;;;9.45;2.92;;;;;;;;;;7389446;19;20014;-76
2022/06/23 05:01:40;;;;;;;6.70;3.08;;;;;;;;;;7390685;19;20012;-76
2022/06/23 05:04:12;;;;;;;11.45;2.92;;;;;;;;;;7389561;19;20026;-75
2022/06/23 05:06:42;;;;;;;7.82;2.80;;;;;;;;;;7389634;19;20532;-75
2022/06/23 05:09:21;;;;;;;10.80;2.88;;;;;;;;;;7393532;19;20021;-76
2022/06/23 05:11:48;;;;;;;5.50;2.55;;;;;;;;;;7389388;19;20074;-75
2022/06/23 05:14:20;;;;;;;7.47;2.00;;;;;;;;;;7390020;19;20014;-75
2022/06/23 05:16:49;;;;;;;7.78;1.83;;;;;;;;;;7393299;19;20014;-76
2022/06/23 05:19:28;;;;;;;5.25;2.38;;;;;;;;;;7394293;19;20010;-75
2022/06/23 05:22:01;;;;;;;8.15;2.20;;;;;;;;;;7391082;19;20501;-75
2022/06/23 05:24:33;;;;;;;6.22;1.90;;;;;;;;;;7384376;19;20117;-76
2022/06/23 05:27:04;;;;;;;4.25;1.65;;;;;;;;;;7390530;19;20065;-75
2022/06/23 05:29:58;;;;;;;5.70;1.75;;;;;;;;;;7387077;19;20009;-75
2022/06/23 05:32:43;;;;;;;2.78;1.58;;;;;;;;;;7393828;19;20003;-75
2022/06/23 05:35:25;;;;;;;9.73;1.80;;;;;;;;;;7390996;19;20022;-75
2022/06/23 05:37:58;;;;;;;3.30;1.30;;;;;;;;;;7392422;19;20010;-76
2022/06/23 05:40:40;;;;;;;3.60;1.60;;;;;;;;;;7390621;19;20006;-76
2022/06/23 05:43:10;;;;;;;5.78;1.60;;;;;;;;;;7393304;19;20469;-76
2022/06/23 05:45:47;;;;;;;4.03;1.33;;;;;;;;;;7387773;19;20471;-76
2022/06/23 05:48:19;;;;;;;1.77;1.20;;;;;;;;;;7390219;19;20096;-76
2022/06/23 05:50:56;;;;;;;2.10;1.20;;;;;;;;;;7392241;19;20014;-77
2022/06/23 05:54:10;;;;;;;3.75;1.75;;;;;;;;;;7393195;19;20025;-78
2022/06/23 05:56:35;;;;;;;4.20;1.35;;;;;;;;;;7391412;19;20034;-80
2022/06/23 05:59:14;;;;;;;3.40;1.48;;;;;;;;;;7390749;19;20110;-78
2022/06/23 06:01:47;;;;;;;2.17;1.10;;;;;;;;;;7386283;19;20014;-78
2022/06/23 06:04:33;;;;;;;2.55;1.65;;;;;;;;;;7380689;19;20019;-78
2022/06/23 06:06:59;;;;;;;4.20;1.50;;;;;;;;;;7388293;19;20010;-79
2022/06/23 06:09:40;;;;;;;7.07;1.52;;;;;;;;;;7388408;19;20017;-79
2022/06/23 06:12:13;;;;;;;5.93;1.77;;;;;;;;;;7390848;19;20011;-78
2022/06/23 06:14:42;;;;;;;7.72;1.67;;;;;;;;;;7388357;19;20018;-79
2022/06/23 06:17:15;;;;;;;2.97;1.70;;;;;;;;;;7394743;19;20030;-78
2022/06/23 06:19:40;;;;;;;1.98;1.52;;;;;;;;;;7388738;19;20002;-78
2022/06/23 06:22:38;;;;;;;4.70;1.65;;;;;;;;;;7393614;19;20013;-78
2022/06/23 06:25:06;;;;;;;4.40;1.85;;;;;;;;;;7391860;19;20022;-78
2022/06/23 06:27:31;;;;;;;3.38;1.65;;;;;;;;;;7393454;19;20110;-77
2022/06/23 06:29:57;;;;;;;6.80;1.83;;;;;;;;;;7392512;19;20010;-78
2022/06/23 06:32:35;;;;;;;4.10;1.20;;;;;;;;;;7391635;19;20337;-78
2022/06/23 06:35:25;;;;;;;3.78;1.58;;;;;;;;;;7390747;19;20014;-78
2022/06/23 06:37:59;;;;;;;4.57;1.55;;;;;;;;;;7392745;19;20502;-78
2022/06/23 06:40:25;;;;;;;9.40;1.97;;;;;;;;;;7389546;19;20078;-78
2022/06/23 06:42:57;;;;;;;6.47;1.73;;;;;;;;;;7393281;19;20031;-78
2022/06/23 06:45:27;;;;;;;4.15;1.52;;;;;;;;;;7392099;19;20469;-78
2022/06/23 06:47:53;;;;;;;3.03;1.65;;;;;;;;;;7392121;19;20367;-78
2022/06/23 06:50:18;;;;;;;4.43;1.50;;;;;;;;;;7392166;19;20477;-78
2022/06/23 06:52:45;;;;;;;2.47;1.05;;;;;;;;;;7392228;19;20458;-78
2022/06/23 06:55:36;;;;;;;4.85;1.58;;;;;;;;;;7392158;19;20081;-79
2022/06/23 06:58:09;;;;;;;2.80;1.60;;;;;;;;;;7391527;19;20474;-79
2022/06/23 07:00:45;;;;;;;4.47;1.40;;;;;;;;;;7387881;19;19999;-79
2022/06/23 07:03:13;;;;;;;5.68;1.67;;;;;;;;;;7389483;19;20026;-79
2022/06/23 07:05:49;;;;;;;3.95;1.60;;;;;;;;;;7390719;19;20023;-78
2022/06/23 07:08:37;;;;;;;9.38;2.03;;;;;;;;;;7391870;19;20010;-79
2022/06/23 07:11:11;;;;;;;9.52;1.95;;;;;;;;;;7392143;19;20036;-79
2022/06/23 07:13:57;;;;;;;6.15;1.50;;;;;;;;;;7389448;19;20627;-79
2022/06/23 07:16:41;;;;;;;7.75;1.65;;;;;;;;;;7390273;19;20495;-79
2022/06/23 07:19:15;;;;;;;4.60;1.60;;;;;;;;;;7389965;19;20082;-78
2022/06/23 07:21:44;;;;;;;5.47;1.55;;;;;;;;;;7391748;19;20488;-79
2022/06/23 07:24:12;;;;;;;3.15;1.50;;;;;;;;;;7391870;19;20010;-79
2022/06/23 07:26:45;;;;;;;6.60;1.67;;;;;;;;;;7400160;19;20053;-80
2022/06/23 07:29:26;;;;;;;7.88;1.50;;;;;;;;;;7408930;19;20007;-79
2022/06/23 07:32:01;;;;;;;4.07;1.40;;;;;;;;;;7405500;19;20014;-79
2022/06/23 07:34:32;;;;;;;3.10;1.58;;;;;;;;;;7406453;19;20395;-79
2022/06/23 07:36:59;;;;;;;4.93;1.90;;;;;;;;;;7403881;19;20011;-79
2022/06/23 07:39:34;;;;;;;5.07;1.70;;;;;;;;;;7393877;19;20494;-79
2022/06/23 07:42:05;;;;;;;7.87;1.73;;;;;;;;;;7396277;19;20346;-79
2022/06/23 07:44:37;;;;;;;4.40;1.73;;;;;;;;;;7392708;19;20307;-80
2022/06/23 07:47:03;;;;;;;5.18;1.40;;;;;;;;;;7391362;19;20021;-79
2022/06/23 07:49:31;;;;;;;4.78;1.77;;;;;;;;;;7393252;19;20010;-80
2022/06/23 07:51:57;;;;;;;7.63;1.60;;;;;;;;;;7394185;19;19998;-79
2022/06/23 07:54:23;;;;;;;3.05;1.42;;;;;;;;;;7391292;19;20010;-79
2022/06/23 07:56:50;;;;;;;7.28;1.50;;;;;;;;;;7390431;19;20018;-79
2022/06/23 07:59:19;;;;;;;3.53;1.42;;;;;;;;;;7393957;19;20015;-79
2022/06/23 08:01:55;;;;;;;4.22;1.50;;;;;;;;;;7390938;19;20158;-79
2022/06/23 08:04:42;;;;;;;5.13;1.40;;;;;;;;;;7389194;19;20044;-79
2022/06/23 08:07:10;;;;;;;4.70;1.48;;;;;;;;;;7394771;19;20019;-79
2022/06/23 08:09:46;;;;;;;4.15;1.17;;;;;;;;;;7390872;19;20036;-80
2022/06/23 08:18:13;;;;;;;2.97;1.58;;;;;;;;;;7391786;19;20026;-79
2022/06/23 08:20:45;;;;;;;3.40;1.30;;;;;;;;;;7388917;19;20070;-79
2022/06/23 08:23:12;;;;;;;3.17;1.40;;;;;;;;;;7390174;19;20029;-78
2022/06/23 08:25:40;;;;;;;6.43;1.33;;;;;;;;;;7391492;19;20501;-79
2022/06/23 08:28:06;;;;;;;4.57;1.23;;;;;;;;;;7387799;19;20085;-78
2022/06/23 08:30:36;;;;;;;3.40;1.40;;;;;;;;;;7388837;19;20003;-79
2022/06/23 08:33:02;;;;;;;4.35;1.70;;;;;;;;;;7389197;19;20459;-78
2022/06/23 08:35:41;;;;;;;1.90;1.20;;;;;;;;;;7389680;19;20315;-79
2022/06/23 08:38:18;;;;;;;3.65;1.20;;;;;;;;;;7389070;19;20624;-78
2022/06/23 08:41:12;;;;;;;5.72;1.63;;;;;;;;;;7386996;19;20014;-79
2022/06/23 08:43:52;;;;;;;4.95;1.40;;;;;;;;;;7389101;19;20086;-78
2022/06/23 08:46:37;;;;;;;2.10;1.08;;;;;;;;;;7390591;19;20011;-78
2022/06/23 08:49:21;;;;;;;4.38;1.23;;;;;;;;;;7389575;19;20364;-79
2022/06/23 08:52:10;;;;;;;4.95;0.90;;;;;;;;;;7389818;19;20498;-78
2022/06/23 08:54:40;;;;;;;4.68;1.13;;;;;;;;;;7388465;19;20007;-78
2022/06/23 08:57:21;;;;;;;5.47;1.40;;;;;;;;;;7390473;19;20003;-79
2022/06/23 08:59:55;;;;;;;3.65;1.00;;;;;;;;;;7386039;19;20010;-78
2022/06/23 09:02:28;;;;;;;3.55;1.15;;;;;;;;;;7390622;19;20002;-79
2022/06/23 09:05:01;;;;;;;6.75;1.20;;;;;;;;;;7390630;19;20031;-79
2022/06/23 09:07:46;;;;;;;4.80;1.30;;;;;;;;;;7387662;19;20026;-78
2022/06/23 09:10:50;;;;;;;3.30;1.13;;;;;;;;;;7384740;19;20023;-79
2022/06/23 09:13:30;;;;;;;5.90;1.05;;;;;;;;;;7387325;19;20085;-78
2022/06/23 09:16:22;;;;;;;4.38;1.35;;;;;;;;;;7386552;19;20618;-79
2022/06/23 09:18:56;;;;;;;3.10;1.20;;;;;;;;;;7386623;19;20644;-79
2022/06/23 09:21:25;;;;;;;3.20;1.20;;;;;;;;;;7387132;19;20007;-80
2022/06/23 09:24:07;;;;;;;4.32;1.05;;;;;;;;;;7394513;19;20011;-79
2022/06/23 09:26:40;;;;;;;6.28;1.02;;;;;;;;;;7397347;19;20345;-78
2022/06/23 09:29:29;;;;;;;2.95;1.08;;;;;;;;;;7397852;19;20010;-79
2022/06/23 09:31:54;;;;;;;7.20;1.20;;;;;;;;;;7395060;19;20018;-79
2022/06/23 09:34:28;;;;;;;6.57;1.15;;;;;;;;;;7390566;19;20026;-79
2022/06/23 09:36:59;;;;;;;3.47;1.40;;;;;;;;;;7393597;19;20090;-80
2022/06/23 09:39:43;;;;;;;3.95;1.20;;;;;;;;;;7390552;19;20110;-78
2022/06/23 09:42:35;;;;;;;6.30;1.50;;;;;;;;;;7396776;19;20408;-79
2022/06/23 09:45:21;;;;;;;4.35;1.02;;;;;;;;;;7394880;19;20017;-79
2022/06/23 09:48:08;;;;;;;3.75;1.23;;;;;;;;;;7392843;19;20357;-80
2022/06/23 09:51:28;;;;;;;3.17;0.95;;;;;;;;;;7390096;19;20321;-78
2022/06/23 09:54:17;;;;;;;1.77;1.00;;;;;;;;;;7389389;19;20315;-79
2022/06/23 09:57:00;;;;;;;2.97;1.00;;;;;;;;;;7391503;19;20010;-80
2022/06/23 09:59:35;;;;;;;2.47;1.00;;;;;;;;;;7394530;19;20007;-79
2022/06/23 10:02:22;;;;;;;5.55;1.40;;;;;;;;;;7387905;19;20089;-78
2022/06/23 10:05:26;;;;;;;6.85;1.50;;;;;;;;;;7392856;19;20022;-79
2022/06/23 10:08:18;;;;;;;5.03;1.52;;;;;;;;;;7388198;19;20007;-78
2022/06/23 10:11:13;;;;;;;7.13;1.75;;;;;;;;;;7386721;19;20006;-79
2022/06/23 10:13:44;;;;;;;2.72;1.02;;;;;;;;;;7384664;19;20010;-78
2022/06/23 10:16:43;;;;;;;2.90;1.20;;;;;;;;;;7388164;19;20014;-77
2022/06/23 10:19:49;;;;;;;5.40;1.20;;;;;;;;;;7388575;19;20119;-77
2022/06/23 10:22:31;;;;;;;3.15;1.15;;;;;;;;;;7391468;19;20114;-78
2022/06/23 10:25:18;;;;;;;3.08;1.00;;;;;;;;;;7393784;19;20014;-78
2022/06/23 10:27:46;;;;;;;4.63;1.20;;;;;;;;;;7389729;19;20014;-78
2022/06/23 10:30:17;;;;;;;3.50;1.05;;;;;;;;;;7387369;19;20389;-78
2022/06/23 10:33:02;;;;;;;2.97;1.40;;;;;;;;;;7389072;19;20041;-77
2022/06/23 10:36:05;;;;;;;4.25;1.27;;;;;;;;;;7383926;19;20025;-77
2022/06/23 10:38:33;;;;;;;3.15;1.10;;;;;;;;;;7382027;19;20010;-77
2022/06/23 10:41:27;;;;;;;3.90;1.02;;;;;;;;;;7388299;19;20054;-77
2022/06/23 10:44:10;;;;;;;3.10;0.95;;;;;;;;;;7384936;19;20026;-77
2022/06/23 10:47:03;;;;;;;3.97;1.17;;;;;;;;;;7386804;19;20014;-78
2022/06/23 10:50:04;;;;;;;2.85;1.10;;;;;;;;;;7388285;19;20011;-77
2022/06/23 10:52:56;;;;;;;1.85;1.08;;;;;;;;;;7390484;19;20146;-77
2022/06/23 10:55:32;;;;;;;6.35;1.17;;;;;;;;;;7387893;19;20014;-76
2022/06/23 10:58:26;;;;;;;6.97;1.45;;;;;;;;;;7389940;19;20466;-76
2022/06/23 11:01:24;;;;;;;4.05;1.02;;;;;;;;;;7385805;19;20010;-77
2022/06/23 11:03:49;;;;;;;3.95;1.35;;;;;;;;;;7386061;19;20030;-76
2022/06/23 11:06:24;;;;;;;2.55;1.00;;;;;;;;;;7389490;19;20014;-77
2022/06/23 11:09:10;;;;;;;;;;;;;;;;;;7389609;19;20014;-77
2022/06/23 11:11:56;;;;;;;4.30;1.23;;;;;;;;;;7389561;19;20097;-78
2022/06/23 11:14:35;;;;;;;6.13;1.50;;;;;;;;;;7385069;19;20018;-76
2022/06/23 11:17:04;;;;;;;5.40;0.95;;;;;;;;;;7389891;19;20010;-77
2022/06/23 11:19:57;;;;;;;6.15;1.63;;;;;;;;;;7388865;19;20029;-76
2022/06/23 11:22:28;;;;;;;7.43;1.42;;;;;;;;;;7387838;19;20007;-77
2022/06/23 11:24:59;;;;;;;7.22;1.67;;;;;;;;;;7388992;19;20013;-78
2022/06/23 11:28:04;;;;;;;3.75;1.70;;;;;;;;;;7387645;19;20082;-77
2022/06/23 11:30:57;;;;;;;9.33;1.90;;;;;;;;;;7381386;19;20528;-77
2022/06/23 11:33:31;;;;;;;4.68;1.42;;;;;;;;;;7382134;19;20014;-77
2022/06/23 11:36:33;;;;;;;3.83;1.30;;;;;;;;;;7381599;19;20678;-77
2022/06/23 11:39:16;;;;;;;6.65;1.45;;;;;;;;;;7386204;19;20070;-77
2022/06/23 11:41:58;;;;;;;5.30;1.55;;;;;;;;;;7379573;19;20006;-77
2022/06/23 11:44:54;;;;;;;4.20;1.23;;;;;;;;;;7384356;19;20006;-77
2022/06/23 11:47:19;;;;;;;6.75;1.20;;;;;;;;;;7386169;19;20017;-76
2022/06/23 11:50:06;;;;;;;5.53;1.20;;;;;;;;;;7386602;19;20010;-77
2022/06/23 11:52:52;;;;;;;2.53;0.90;;;;;;;;;;7378559;19;20018;-78
2022/06/23 11:55:43;;;;;;;1.83;1.08;;;;;;;;;;7382135;19;20007;-77
2022/06/23 11:58:31;;;;;;;5.93;1.30;;;;;;;;;;7377387;19;20359;-79
2022/06/23 12:01:14;;;;;;;6.38;1.55;;;;;;;;;;7386190;19;20360;-76
2022/06/23 12:04:07;;;;;;;3.85;1.25;;;;;;;;;;7381044;19;20030;-79
2022/06/23 12:07:09;;;;;;;3.42;1.10;;;;;;;;;;7384103;19;20011;-76
2022/06/23 12:09:44;;;;;;;2.13;1.08;;;;;;;;;;7384598;19;20038;-77
2022/06/23 12:12:09;;;;;;;4.30;1.52;;;;;;;;;;7382424;19;20003;-77
2022/06/23 12:14:37;;;;;;;3.00;1.25;;;;;;;;;;7381245;19;19994;-77
2022/06/23 12:17:28;;;;;;;4.50;1.10;;;;;;;;;;7381851;19;20156;-77
2022/06/23 12:20:15;;;;;;;6.78;1.30;;;;;;;;;;7382680;19;20029;-77
2022/06/23 12:23:09;;;;;;;3.40;0.85;;;;;;;;;;7383884;19;20011;-76
2022/06/23 12:25:46;;;;;;;4.88;1.20;;;;;;;;;;7379870;19;20540;-76
2022/06/23 12:28:23;;;;;;;4.20;1.00;;;;;;;;;;7382840;19;20092;-77
2022/06/23 12:30:54;;;;;;;5.13;1.50;;;;;;;;;;7381110;19;20423;-76
2022/06/23 12:33:32;;;;;;;5.25;1.23;;;;;;;;;;7382622;19;20844;-76
2022/06/23 12:36:08;;;;;;;4.38;1.20;;;;;;;;;;7382321;19;19999;-78
2022/06/23 12:38:33;;;;;;;4.32;1.17;;;;;;;;;;7382996;19;20094;-76
2022/06/23 12:41:07;;;;;;;5.95;1.20;;;;;;;;;;7383132;19;20102;-77
2022/06/23 12:43:45;;;;;;;4.40;1.27;;;;;;;;;;7385991;19;20014;-77
2022/06/23 12:46:13;;;;;;;6.13;1.10;;;;;;;;;;7384327;19;20131;-77
2022/06/23 12:49:01;;;;;;;2.88;1.33;;;;;;;;;;7386287;19;20026;-77
2022/06/23 12:51:46;;;;;;;3.22;1.35;;;;;;;;;;7382358;19;20423;-77
2022/06/23 12:54:33;;;;;;;4.75;1.40;;;;;;;;;;7383494;19;20018;-78
2022/06/23 12:57:06;;;;;;;4.95;1.40;;;;;;;;;;7387952;19;20013;-79
2022/06/23 12:59:43;;;;;;;4.07;1.15;;;;;;;;;;7386646;19;20002;-78
2022/06/23 13:02:14;;;;;;;3.47;1.27;;;;;;;;;;7391729;19;20477;-78
2022/06/23 13:05:08;;;;;;;4.85;1.50;;;;;;;;;;7387551;19;20018;-79
2022/06/23 13:07:55;;;;;;;5.00;1.58;;;;;;;;;;7386745;19;20010;-79
2022/06/23 13:10:31;;;;;;;3.80;1.30;;;;;;;;;;7387555;19;20110;-79
2022/06/23 13:13:05;;;;;;;6.55;1.45;;;;;;;;;;7391055;19;20010;-79
2022/06/23 13:15:43;;;;;;;3.33;1.20;;;;;;;;;;7385002;19;20003;-77
2022/06/23 13:18:27;;;;;;;4.90;1.50;;;;;;;;;;7388515;19;20006;-78
2022/06/23 13:21:22;;;;;;;3.78;1.65;;;;;;;;;;7387494;19;20010;-78
2022/06/23 13:24:10;;;;;;;4.40;1.30;;;;;;;;;;7391389;19;20047;-78
2022/06/23 13:26:42;;;;;;;3.20;1.35;;;;;;;;;;7392861;19;20010;-78
2022/06/23 13:29:17;;;;;;;7.55;1.58;;;;;;;;;;7391807;19;20006;-78
2022/06/23 13:31:59;;;;;;;3.13;1.52;;;;;;;;;;7391536;19;20010;-78
2022/06/23 13:34:29;;;;;;;6.75;1.65;;;;;;;;;;7390438;19;20014;-78
2022/06/23 13:37:08;;;;;;;4.38;1.52;;;;;;;;;;7388226;19;20010;-78
2022/06/23 13:39:45;;;;;;;5.30;1.38;;;;;;;;;;7388598;19;20055;-78
2022/06/23 13:42:25;;;;;;;4.00;1.40;;;;;;;;;;7391462;19;20002;-79
2022/06/23 13:44:59;;;;;;;4.22;1.30;;;;;;;;;;7386500;19;20010;-78
2022/06/23 13:48:02;;;;;;;4.15;1.48;;;;;;;;;;7384431;19;20544;-78
2022/06/23 13:50:27;;;;;;;5.45;1.45;;;;;;;;;;7386348;19;20374;-78
2022/06/23 13:52:58;;;;;;;3.83;1.45;;;;;;;;;;7381468;19;20089;-78
2022/06/23 13:55:45;;;;;;;5.15;1.40;;;;;;;;;;7388707;19;20018;-78
2022/06/23 13:58:17;;;;;;;7.45;1.50;;;;;;;;;;7386252;19;20077;-79
2022/06/23 14:00:49;;;;;;;5.15;1.80;;;;;;;;;;7387005;19;20066;-78
2022/06/23 14:03:24;;;;;;;7.57;1.70;;;;;;;;;;7387227;19;20017;-78
2022/06/23 14:06:03;;;;;;;5.35;1.30;;;;;;;;;;7379278;19;20006;-76
2022/06/23 14:08:35;;;;;;;6.72;1.60;;;;;;;;;;7385920;19;20003;-76
2022/06/23 14:11:14;;;;;;;3.63;1.58;;;;;;;;;;7388816;19;20350;-76
2022/06/23 14:14:04;;;;;;;4.50;1.23;;;;;;;;;;7388661;19;20003;-77
2022/06/23 14:16:37;;;;;;;10.52;1.33;;;;;;;;;;7375374;19;20010;-76
2022/06/23 14:19:13;;;;;;;7.30;1.33;;;;;;;;;;7378924;19;20017;-76
2022/06/23 14:21:45;;;;;;;4.57;1.60;;;;;;;;;;7383560;19;20039;-76
2022/06/23 14:24:29;;;;;;;6.45;1.48;;;;;;;;;;7381509;19;20103;-76
2022/06/23 14:27:00;;;;;;;3.72;1.23;;;;;;;;;;7388179;19;20599;-76
2022/06/23 14:30:08;;;;;;;3.60;1.50;;;;;;;;;;7377464;19;20014;-76
2022/06/23 14:32:43;;;;;;;2.97;1.13;;;;;;;;;;7381371;19;20018;-76
2022/06/23 14:35:16;;;;;;;6.10;1.52;;;;;;;;;;7385330;19;20010;-77
2022/06/23 14:38:04;;;;;;;4.85;1.10;;;;;;;;;;7385734;19;20010;-77
2022/06/23 14:41:08;;;;;;;5.78;1.42;;;;;;;;;;7382155;19;20339;-77
2022/06/23 14:43:48;;;;;;;3.53;1.25;;;;;;;;;;7387733;19;20101;-77
2022/06/23 14:46:28;;;;;;;6.50;1.45;;;;;;;;;;7389854;19;20015;-77
2022/06/23 14:49:19;;;;;;;1.83;1.15;;;;;;;;;;7384289;19;20003;-77
2022/06/23 14:51:53;;;;;;;4.38;1.50;;;;;;;;;;7382276;19;20029;-77
2022/06/23 14:54:31;;;;;;;6.60;1.73;;;;;;;;;;7386682;19;19998;-77
2022/06/23 14:57:11;;;;;;;5.50;1.23;;;;;;;;;;7382917;19;20002;-76
2022/06/23 15:00:16;;;;;;;4.47;1.23;;;;;;;;;;7385883;19;20070;-77
2022/06/23 15:02:44;;;;;;;2.85;1.00;;;;;;;;;;7388391;19;20007;-77
2022/06/23 15:05:26;;;;;;;7.30;1.42;;;;;;;;;;7387056;19;20342;-77
2022/06/23 15:08:01;;;;;;;5.38;1.40;;;;;;;;;;7382245;19;20010;-77
2022/06/23 15:10:30;;;;;;;4.05;1.63;;;;;;;;;;7382612;19;20034;-76
2022/06/23 15:13:01;;;;;;;4.43;1.23;;;;;;;;;;7385930;19;20540;-76
2022/06/23 15:16:14;;;;;;;7.50;1.45;;;;;;;;;;7386470;19;20006;-76
2022/06/23 15:19:02;;;;;;;3.88;1.35;;;;;;;;;;7380432;19;20481;-76
2022/06/23 15:25:06;;;;;;;4.47;1.58;;;;;;;;;;7382486;19;20657;-77
2022/06/23 15:27:37;;;;;;;3.53;1.33;;;;;;;;;;7385581;19;20010;-78
2022/06/23 15:30:17;;;;;;;5.45;1.25;;;;;;;;;;7383745;19;20018;-76
2022/06/23 15:33:08;;;;;;;5.10;1.50;;;;;;;;;;7389035;19;20018;-78
2022/06/23 15:35:45;;;;;;;3.50;1.25;;;;;;;;;;7386406;19;20014;-76
2022/06/23 15:38:35;;;;;;;6.50;1.25;;;;;;;;;;7384096;19;20023;-76
2022/06/23 15:41:37;;;;;;;3.13;1.20;;;;;;;;;;7386155;19;20014;-76
2022/06/23 15:44:07;;;;;;;8.38;1.27;;;;;;;;;;7382900;19;20014;-77
2022/06/23 15:46:44;;;;;;;5.63;1.33;;;;;;;;;;7375226;19;20007;-77
2022/06/23 15:49:29;;;;;;;2.42;1.13;;;;;;;;;;7386372;19;20024;-78
2022/06/23 15:52:14;;;;;;;5.45;1.73;;;;;;;;;;7388182;19;20028;-77
2022/06/23 15:54:52;;;;;;;7.15;1.20;;;;;;;;;;7384720;19;20018;-77
2022/06/23 15:57:26;;;;;;;3.00;1.00;;;;;;;;;;7385791;19;20481;-76
2022/06/23 15:59:56;;;;;;;;;;;;;;;;;;7385656;19;20058;-78
2022/06/23 16:02:46;;;;;;;5.07;1.00;;;;;;;;;;7385438;19;19925;-77